Time;durP1;ratioP1;P1;durP2;ratioP2;P2;SDS_P1;SDS_P2;PMS_P1;PMS_P2;Temp;Humidity;BMP_temperature;BMP_pressure;BME280_temperature;BME280_humidity;BME280_pressure;Samples;Min_cycle;Max_cycle;Signal;HPM_P1;HPM_P2
2021/12/10 00:00:50;;;;;;;1.40;1.20;;;18.20;46.50;;;;;;4995582;28;20547;-23
2021/12/10 00:03:24;;;;;;;1.30;1.20;;;18.20;46.50;;;;;;4991838;28;20266;-23
2021/12/10 00:05:56;;;;;;;1.20;1.10;;;18.20;46.50;;;;;;4996766;28;20218;-24
2021/12/10 00:08:23;;;;;;;1.30;1.20;;;18.20;46.50;;;;;;4998051;28;20289;-23
2021/12/10 00:10:54;;;;;;;1.40;1.27;;;18.20;46.50;;;;;;4998405;28;20236;-23
2021/12/10 00:13:21;;;;;;;1.30;1.20;;;18.20;46.50;;;;;;4997543;28;20586;-22
2021/12/10 00:15:47;;;;;;;1.33;1.17;;;18.20;46.50;;;;;;4997528;28;20199;-24
2021/12/10 00:18:18;;;;;;;1.30;1.10;;;18.20;46.50;;;;;;4980139;28;20193;-23
2021/12/10 00:20:45;;;;;;;2.33;1.07;;;18.10;46.40;;;;;;4979206;28;20217;-22
2021/12/10 00:23:15;;;;;;;2.50;1.30;;;18.10;46.50;;;;;;4978722;28;20210;-25
2021/12/10 00:25:47;;;;;;;1.43;1.20;;;18.10;46.50;;;;;;4978527;28;20193;-26
2021/12/10 00:28:40;;;;;;;2.10;1.13;;;18.10;46.50;;;;;;4996749;28;20194;-24
2021/12/10 00:34:16;;;;;;;1.30;1.20;;;18.00;46.50;;;;;;4997319;28;20197;-23
2021/12/10 00:36:43;;;;;;;1.43;1.20;;;18.00;46.50;;;;;;4996377;28;20201;-22
2021/12/10 00:39:17;;;;;;;1.80;1.10;;;18.00;46.60;;;;;;4979849;28;20586;-25
2021/12/10 00:41:44;;;;;;;1.27;1.10;;;18.00;46.60;;;;;;4996202;28;20193;-23
2021/12/10 00:44:09;;;;;;;1.43;1.30;;;18.00;46.70;;;;;;4978313;28;20178;-22
2021/12/10 00:46:35;;;;;;;1.20;1.00;;;17.90;46.60;;;;;;4978671;28;20202;-25
2021/12/10 00:49:02;;;;;;;2.37;1.37;;;17.90;46.70;;;;;;4995443;28;20196;-22
2021/12/10 00:51:28;;;;;;;2.13;1.30;;;17.90;46.70;;;;;;4979653;28;20307;-24
2021/12/10 00:53:54;;;;;;;2.10;1.40;;;17.80;46.60;;;;;;4996854;28;20564;-25
2021/12/10 00:56:20;;;;;;;1.30;1.20;;;17.80;46.70;;;;;;4979392;28;20213;-25
2021/12/10 00:58:46;;;;;;;1.27;1.17;;;17.80;46.80;;;;;;4979740;28;20190;-23
2021/12/10 01:01:17;;;;;;;1.50;1.40;;;17.70;46.60;;;;;;4996255;28;20534;-22
2021/12/10 01:03:51;;;;;;;1.23;1.13;;;17.70;46.70;;;;;;4996341;28;20225;-25
2021/12/10 01:06:18;;;;;;;1.50;1.40;;;17.70;46.70;;;;;;4994096;28;20197;-23
2021/12/10 01:08:50;;;;;;;2.13;1.20;;;17.70;46.60;;;;;;4978097;28;20241;-24
2021/12/10 01:11:22;;;;;;;2.37;1.40;;;17.60;46.60;;;;;;4994741;28;20303;-21
2021/12/10 01:13:52;;;;;;;2.17;1.33;;;17.60;46.60;;;;;;4980311;28;20198;-24
2021/12/10 01:24:49;;;;;;;1.93;1.30;;;17.50;46.70;;;;;;4995768;28;20304;-24
2021/12/10 01:27:32;;;;;;;1.30;1.20;;;17.50;46.70;;;;;;4994847;28;20199;-23
2021/12/10 01:30:21;;;;;;;1.53;1.13;;;17.50;46.80;;;;;;4994922;28;20216;-24
2021/12/10 01:32:53;;;;;;;1.83;1.20;;;17.50;46.80;;;;;;4994792;28;20224;-24
2021/12/10 01:35:23;;;;;;;1.47;1.10;;;17.50;46.90;;;;;;4995632;28;20208;-24
2021/12/10 01:37:51;;;;;;;2.07;1.20;;;17.40;46.80;;;;;;4978884;28;20216;-24
2021/12/10 01:40:20;;;;;;;1.30;1.20;;;17.40;46.90;;;;;;4978710;28;20192;-24
2021/12/10 01:42:50;;;;;;;1.30;1.20;;;17.40;46.90;;;;;;4978348;28;20186;-21
2021/12/10 01:45:24;;;;;;;1.70;1.20;;;17.30;46.90;;;;;;4995927;28;20298;-24
2021/12/10 01:48:05;;;;;;;2.00;1.20;;;17.30;46.90;;;;;;4995890;28;20211;-23
2021/12/10 01:50:35;;;;;;;1.40;1.30;;;17.30;47.00;;;;;;4978316;28;20214;-24
2021/12/10 01:53:08;;;;;;;1.00;1.00;;;17.30;46.90;;;;;;4977521;28;20444;-23
2021/12/10 01:55:36;;;;;;;1.20;1.10;;;17.30;47.00;;;;;;4994900;28;20294;-25
2021/12/10 01:58:03;;;;;;;1.77;1.20;;;17.20;47.00;;;;;;4995250;28;20258;-24
2021/12/10 02:00:33;;;;;;;2.10;1.33;;;17.20;47.00;;;;;;4979081;28;20393;-24
2021/12/10 02:02:59;;;;;;;1.70;1.20;;;17.20;47.10;;;;;;4995974;28;20203;-25
2021/12/10 02:05:26;;;;;;;1.30;1.20;;;17.20;47.10;;;;;;4995214;28;20194;-24
2021/12/10 02:07:53;;;;;;;1.20;1.10;;;17.20;47.10;;;;;;4978940;28;20196;-23
2021/12/10 02:10:21;;;;;;;1.20;1.00;;;17.10;47.10;;;;;;4978398;28;20207;-22
2021/12/10 02:12:47;;;;;;;1.53;1.10;;;17.10;47.10;;;;;;4976602;28;20281;-19
2021/12/10 02:15:14;;;;;;;1.57;1.10;;;17.10;47.10;;;;;;4976729;28;20303;-23
2021/12/10 02:17:44;;;;;;;1.50;1.20;;;17.00;47.10;;;;;;4993487;28;20207;-23
2021/12/10 02:20:52;;;;;;;1.33;1.23;;;17.00;47.20;;;;;;4977357;28;20265;-22
2021/12/10 02:23:18;;;;;;;1.33;1.10;;;16.90;47.20;;;;;;4979185;28;20464;-23
2021/12/10 02:25:44;;;;;;;1.10;1.00;;;16.90;47.30;;;;;;4977956;28;20195;-22
2021/12/10 02:28:11;;;;;;;1.47;1.00;;;16.90;47.30;;;;;;4995464;28;20199;-23
2021/12/10 02:30:39;;;;;;;1.87;1.20;;;16.90;47.40;;;;;;4995246;28;20217;-22
2021/12/10 02:33:06;;;;;;;1.90;1.30;;;16.90;47.40;;;;;;4994471;28;20636;-24
2021/12/10 02:35:33;;;;;;;1.43;1.20;;;16.80;47.40;;;;;;4976116;28;20214;-24
2021/12/10 02:37:59;;;;;;;1.27;1.00;;;16.80;47.40;;;;;;4975383;28;20199;-25
2021/12/10 02:40:27;;;;;;;1.20;1.03;;;16.80;47.50;;;;;;4992762;28;20246;-20
2021/12/10 02:42:54;;;;;;;1.30;1.00;;;16.80;47.50;;;;;;4993655;28;20265;-27
2021/12/10 02:45:21;;;;;;;1.10;1.00;;;16.70;47.50;;;;;;4994317;28;20207;-22
2021/12/10 02:47:48;;;;;;;1.40;1.17;;;16.70;47.60;;;;;;4994750;28;20205;-22
2021/12/10 02:50:17;;;;;;;1.03;0.93;;;16.70;47.60;;;;;;4994715;28;20217;-25
2021/12/10 02:52:44;;;;;;;1.17;0.93;;;16.60;47.60;;;;;;4994402;28;20204;-24
2021/12/10 02:55:14;;;;;;;1.20;0.93;;;16.60;47.60;;;;;;4995521;28;20198;-24
2021/12/10 02:57:40;;;;;;;1.20;1.00;;;16.60;47.70;;;;;;4977089;28;20194;-22
2021/12/10 03:00:10;;;;;;;1.20;1.00;;;16.50;47.70;;;;;;4993892;28;20198;-23
2021/12/10 03:02:36;;;;;;;1.10;1.00;;;16.50;47.80;;;;;;4992908;28;20551;-25
2021/12/10 03:05:06;;;;;;;1.83;1.20;;;16.50;47.80;;;;;;4976307;28;20241;-24
2021/12/10 03:07:32;;;;;;;2.37;1.13;;;16.50;47.80;;;;;;4994639;28;20194;-22
2021/12/10 03:09:58;;;;;;;1.50;1.00;;;16.50;47.90;;;;;;4994936;28;20186;-24
2021/12/10 03:12:24;;;;;;;0.97;0.83;;;16.40;47.90;;;;;;4995559;28;20234;-24
2021/12/10 03:14:54;;;;;;;1.27;1.00;;;16.40;47.90;;;;;;4977651;28;20543;-25
2021/12/10 03:17:24;;;;;;;1.60;1.20;;;16.40;47.90;;;;;;4977708;28;20193;-23
2021/12/10 03:19:51;;;;;;;2.30;1.07;;;16.40;48.00;;;;;;4976409;28;20202;-22
2021/12/10 03:22:16;;;;;;;2.37;1.03;;;16.40;48.00;;;;;;4976436;28;20227;-23
2021/12/10 03:24:42;;;;;;;1.13;1.00;;;16.30;48.00;;;;;;4992712;28;20202;-22
2021/12/10 03:27:11;;;;;;;1.10;1.00;;;16.30;48.10;;;;;;4977472;28;20198;-24
2021/12/10 03:29:40;;;;;;;1.80;0.93;;;16.30;48.10;;;;;;4997974;28;20206;-23
2021/12/10 03:32:13;;;;;;;1.00;0.90;;;16.30;48.10;;;;;;4998775;28;20313;-23
2021/12/10 03:34:39;;;;;;;1.00;0.90;;;16.30;48.20;;;;;;4981479;28;20203;-26
2021/12/10 03:37:06;;;;;;;1.37;0.90;;;16.30;48.20;;;;;;4998016;28;20197;-25
2021/12/10 03:39:33;;;;;;;1.13;0.90;;;16.30;48.10;;;;;;4981308;28;20212;-24
2021/12/10 03:42:00;;;;;;;1.60;1.00;;;16.30;48.20;;;;;;4998137;28;20171;-24
2021/12/10 03:44:26;;;;;;;1.17;1.07;;;16.30;48.20;;;;;;4997126;28;20594;-25
2021/12/10 03:46:53;;;;;;;1.10;1.00;;;16.30;48.20;;;;;;4978723;28;20198;-24
2021/12/10 03:49:19;;;;;;;0.80;0.80;;;16.20;48.20;;;;;;4979362;28;20216;-24
2021/12/10 03:51:45;;;;;;;1.00;0.80;;;16.20;48.20;;;;;;4997970;28;20253;-25
2021/12/10 03:54:12;;;;;;;1.57;0.97;;;16.20;48.20;;;;;;4997918;28;20241;-24
2021/12/10 03:56:39;;;;;;;1.43;0.90;;;16.20;48.30;;;;;;4997285;28;20244;-23
2021/12/10 03:59:08;;;;;;;0.97;0.80;;;16.20;48.30;;;;;;4997884;28;20561;-24
2021/12/10 04:01:37;;;;;;;0.93;0.90;;;16.20;48.40;;;;;;4980012;28;20248;-23
2021/12/10 04:04:07;;;;;;;1.67;1.00;;;16.10;48.30;;;;;;4997316;28;20223;-23
2021/12/10 04:06:33;;;;;;;0.83;0.83;;;16.10;48.40;;;;;;4977437;28;20330;-23
2021/12/10 04:09:01;;;;;;;1.13;0.93;;;18.40;47.10;;;;;;4995946;28;20265;-25
2021/12/10 04:11:28;;;;;;;1.17;0.90;;;19.50;44.20;;;;;;4995479;28;20256;-24
2021/12/10 04:13:55;;;;;;;1.30;1.00;;;19.60;43.50;;;;;;4980490;28;20209;-24
2021/12/10 04:16:23;;;;;;;0.63;0.63;;;19.80;43.20;;;;;;4979853;28;20252;-24
2021/12/10 04:18:51;;;;;;;1.00;0.80;;;19.90;42.90;;;;;;4980460;28;20201;-25
2021/12/10 04:21:17;;;;;;;1.43;0.90;;;20.10;42.80;;;;;;4997957;28;20203;-22
2021/12/10 04:23:44;;;;;;;1.10;0.90;;;20.50;42.40;;;;;;4996735;28;20204;-23
2021/12/10 04:26:14;;;;;;;1.10;0.73;;;20.80;42.10;;;;;;4980085;28;20210;-21
2021/12/10 04:28:40;;;;;;;1.00;0.80;;;21.20;41.70;;;;;;4978967;28;20314;-24
2021/12/10 04:31:06;;;;;;;1.97;0.90;;;21.50;41.30;;;;;;4977586;28;20309;-24
2021/12/10 04:33:32;;;;;;;1.30;1.00;;;21.80;41.00;;;;;;4995664;28;20199;-23
2021/12/10 04:36:01;;;;;;;1.10;0.93;;;22.20;40.70;;;;;;4996373;28;20181;-24
2021/12/10 04:38:29;;;;;;;1.10;1.00;;;22.50;40.30;;;;;;4979041;28;20209;-24
2021/12/10 04:41:00;;;;;;;1.53;0.90;;;22.50;40.20;;;;;;4979479;28;20211;-23
2021/12/10 04:43:27;;;;;;;1.53;1.00;;;22.60;40.10;;;;;;4996801;28;20303;-28
2021/12/10 04:45:54;;;;;;;1.27;0.80;;;22.90;40.00;;;;;;4996651;28;20210;-25
2021/12/10 04:48:21;;;;;;;1.67;0.93;;;23.00;39.80;;;;;;4995228;28;20194;-23
2021/12/10 04:50:47;;;;;;;1.20;0.80;;;23.00;39.70;;;;;;4995467;28;20259;-26
2021/12/10 04:53:14;;;;;;;0.70;0.70;;;23.10;39.60;;;;;;4994450;28;20434;-24
2021/12/10 04:55:40;;;;;;;1.03;0.80;;;23.10;39.70;;;;;;4977008;28;20202;-26
2021/12/10 04:58:06;;;;;;;1.00;0.77;;;23.20;39.70;;;;;;4994438;28;20571;-24
2021/12/10 05:00:37;;;;;;;1.37;0.90;;;23.40;39.60;;;;;;4978136;28;20370;-21
2021/12/10 05:03:05;;;;;;;1.40;0.93;;;23.50;39.40;;;;;;4996101;28;20454;-22
2021/12/10 05:05:32;;;;;;;1.23;0.93;;;23.60;39.30;;;;;;4978595;28;20202;-24
2021/12/10 05:08:00;;;;;;;0.80;0.73;;;23.50;39.40;;;;;;4995641;28;20205;-25
2021/12/10 05:10:26;;;;;;;0.97;0.80;;;23.50;39.40;;;;;;4996035;28;20613;-24
2021/12/10 05:12:51;;;;;;;1.27;0.80;;;23.20;39.60;;;;;;4977244;28;20640;-25
2021/12/10 05:15:24;;;;;;;2.47;0.90;;;23.00;39.80;;;;;;4994823;28;20538;-22
2021/12/10 05:17:51;;;;;;;1.10;0.87;;;22.80;40.00;;;;;;4975773;28;20314;-28
2021/12/10 05:20:30;;;;;;;0.87;0.70;;;22.50;40.30;;;;;;4993815;28;20205;-21
2021/12/10 05:22:56;;;;;;;2.73;0.90;;;22.30;40.50;;;;;;4994548;28;20188;-24
2021/12/10 05:25:27;;;;;;;1.43;0.80;;;22.00;40.80;;;;;;4994123;28;20220;-27
2021/12/10 05:27:54;;;;;;;1.53;0.90;;;21.70;41.00;;;;;;4994637;28;20609;-24
2021/12/10 05:30:27;;;;;;;1.90;0.93;;;21.50;41.40;;;;;;4978080;28;20622;-24
2021/12/10 05:32:54;;;;;;;1.60;0.90;;;21.30;41.50;;;;;;4976190;28;20224;-24
2021/12/10 05:35:21;;;;;;;1.10;0.83;;;21.00;41.70;;;;;;4976792;28;20300;-24
2021/12/10 05:37:47;;;;;;;2.00;1.00;;;20.80;42.00;;;;;;4992440;28;20205;-24
2021/12/10 05:40:15;;;;;;;2.47;1.10;;;20.50;42.20;;;;;;4993642;28;20198;-24
2021/12/10 05:42:42;;;;;;;1.43;1.00;;;20.20;42.40;;;;;;4992392;28;20513;-26
2021/12/10 05:45:08;;;;;;;1.00;0.90;;;20.00;42.80;;;;;;4996057;28;20266;-23
2021/12/10 05:47:34;;;;;;;1.50;0.93;;;19.80;43.00;;;;;;4993777;28;20203;-25
2021/12/10 05:49:59;;;;;;;1.00;0.90;;;19.60;43.20;;;;;;4992671;28;20203;-24
2021/12/10 05:52:25;;;;;;;1.23;0.80;;;19.60;43.50;;;;;;4992571;28;20476;-26
2021/12/10 05:54:52;;;;;;;0.77;0.70;;;19.80;43.30;;;;;;4993262;28;20190;-23
2021/12/10 05:57:18;;;;;;;1.40;0.93;;;20.60;42.90;;;;;;4975257;28;20206;-22
2021/12/10 05:59:44;;;;;;;0.90;0.80;;;22.30;41.70;;;;;;4991419;28;20192;-25
2021/12/10 06:02:10;;;;;;;1.20;0.80;;;23.10;40.10;;;;;;4974070;28;20303;-23
2021/12/10 06:04:37;;;;;;;1.43;0.87;;;23.30;39.70;;;;;;4990420;28;20520;-25
2021/12/10 06:07:04;;;;;;;0.90;0.80;;;23.50;39.60;;;;;;4974178;28;20209;-25
2021/12/10 06:09:30;;;;;;;1.60;1.00;;;23.60;39.40;;;;;;4991579;28;20213;-24
2021/12/10 06:11:56;;;;;;;1.47;1.00;;;23.40;39.20;;;;;;4974976;28;20463;-24
2021/12/10 06:14:22;;;;;;;1.33;0.90;;;23.20;39.40;;;;;;4991841;28;20501;-24
2021/12/10 06:16:48;;;;;;;2.03;1.00;;;23.10;39.60;;;;;;4991476;28;20252;-25
2021/12/10 06:19:14;;;;;;;1.07;0.93;;;23.10;39.80;;;;;;4989448;28;20248;-24
2021/12/10 06:21:39;;;;;;;2.40;1.20;;;23.30;39.80;;;;;;4960555;28;20198;-23
2021/12/10 06:24:08;;;;;;;1.33;0.90;;;23.30;39.70;;;;;;4977597;28;20170;-24
2021/12/10 06:26:34;;;;;;;2.20;0.93;;;23.30;39.70;;;;;;4970540;28;20458;-22
2021/12/10 06:29:00;;;;;;;1.97;1.10;;;23.30;39.70;;;;;;4954553;28;20237;-27
2021/12/10 06:31:26;;;;;;;2.03;1.10;;;23.00;40.00;;;;;;4971061;28;20370;-26
2021/12/10 06:33:52;;;;;;;1.30;1.00;;;22.70;40.20;;;;;;4952819;28;20258;-25
2021/12/10 06:36:19;;;;;;;1.50;0.80;;;22.50;40.50;;;;;;4969850;28;20568;-25
2021/12/10 06:38:46;;;;;;;2.13;0.77;;;22.40;40.70;;;;;;4951649;28;20351;-23
2021/12/10 06:41:14;;;;;;;1.97;1.00;;;22.00;40.80;;;;;;4969611;28;20206;-22
2021/12/10 06:43:40;;;;;;;1.37;1.10;;;21.70;41.00;;;;;;4969091;28;20603;-26
2021/12/10 06:46:06;;;;;;;1.87;0.93;;;21.30;41.40;;;;;;4950937;28;20210;-24
2021/12/10 06:48:33;;;;;;;2.20;1.10;;;20.90;41.70;;;;;;4970887;28;20194;-25
2021/12/10 06:51:03;;;;;;;2.47;1.30;;;20.70;42.10;;;;;;4971089;28;20309;-26
2021/12/10 06:53:30;;;;;;;2.20;0.90;;;20.60;42.40;;;;;;4971160;28;20435;-25
2021/12/10 06:55:56;;;;;;;2.03;1.10;;;20.30;42.70;;;;;;4952317;28;20615;-24
2021/12/10 06:58:23;;;;;;;1.80;1.00;;;20.10;43.40;;;;;;4971053;28;20212;-26
2021/12/10 07:01:13;;;;;;;3.80;1.20;;;20.00;43.40;;;;;;4970480;28;20228;-25
2021/12/10 07:03:40;;;;;;;2.20;0.90;;;20.10;43.40;;;;;;4971536;28;20534;-22
2021/12/10 07:06:07;;;;;;;2.70;1.13;;;20.30;43.50;;;;;;4970359;28;20248;-26
2021/12/10 07:08:35;;;;;;;2.67;0.90;;;21.10;43.00;;;;;;4953044;28;20209;-24
2021/12/10 07:11:03;;;;;;;3.27;1.20;;;21.70;42.00;;;;;;4953019;28;20218;-24
2021/12/10 07:13:31;;;;;;;1.90;1.20;;;23.10;41.20;;;;;;4961286;28;20216;-26
2021/12/10 07:15:57;;;;;;;5.37;1.43;;;23.60;40.10;;;;;;4990577;28;20469;-28
2021/12/10 07:18:23;;;;;;;1.93;1.10;;;23.60;39.90;;;;;;4973029;28;20618;-23
2021/12/10 07:20:51;;;;;;;3.97;1.63;;;23.50;39.90;;;;;;4989804;28;20201;-25
2021/12/10 07:23:17;;;;;;;2.03;1.20;;;23.60;39.90;;;;;;4988876;28;20190;-23
2021/12/10 07:25:43;;;;;;;6.03;1.53;;;23.60;39.80;;;;;;4990123;28;20237;-25
2021/12/10 07:28:09;;;;;;;3.83;1.40;;;23.60;39.90;;;;;;4990125;28;20603;-24
2021/12/10 07:30:36;;;;;;;3.03;1.07;;;23.50;39.80;;;;;;4972279;28;20279;-20
2021/12/10 07:33:03;;;;;;;3.43;1.20;;;23.30;40.00;;;;;;4989229;28;20224;-23
2021/12/10 07:35:28;;;;;;;3.13;1.23;;;23.10;40.30;;;;;;4989096;28;20715;-22
2021/12/10 07:37:54;;;;;;;2.83;1.13;;;22.90;40.40;;;;;;4988072;28;20202;-21
2021/12/10 07:40:24;;;;;;;1.90;1.30;;;22.70;40.70;;;;;;4970533;28;20292;-23
2021/12/10 07:42:50;;;;;;;3.27;1.00;;;22.40;40.90;;;;;;4972142;28;20186;-25
2021/12/10 07:45:17;;;;;;;2.30;1.23;;;22.10;41.20;;;;;;4972681;28;20206;-23
2021/12/10 07:47:44;;;;;;;2.90;1.17;;;21.80;41.30;;;;;;4972215;28;20576;-23
2021/12/10 07:50:21;;;;;;;4.87;1.13;;;21.50;41.90;;;;;;4960264;28;20205;-22
2021/12/10 07:52:46;;;;;;;2.07;1.10;;;21.30;42.20;;;;;;4959480;28;20509;-22
2021/12/10 07:55:15;;;;;;;2.10;1.20;;;21.00;42.40;;;;;;4955291;28;20262;-22
2021/12/10 07:57:42;;;;;;;2.27;1.10;;;20.80;42.60;;;;;;4971173;28;20211;-20
2021/12/10 08:00:12;;;;;;;3.13;1.10;;;20.60;43.00;;;;;;4970765;28;20208;-23
2021/12/10 08:02:38;;;;;;;3.20;1.10;;;20.40;43.00;;;;;;4969358;28;20778;-24
2021/12/10 08:05:04;;;;;;;1.43;0.93;;;20.30;43.20;;;;;;4951844;28;20218;-23
2021/12/10 08:07:30;;;;;;;1.73;0.97;;;20.40;43.50;;;;;;4951687;28;20242;-22
2021/12/10 08:09:56;;;;;;;2.20;1.10;;;20.60;43.20;;;;;;4951922;28;20213;-20
2021/12/10 08:12:22;;;;;;;2.77;1.20;;;21.40;42.80;;;;;;4969350;28;20368;-22
2021/12/10 08:14:52;;;;;;;1.80;1.20;;;22.50;41.90;;;;;;4955505;28;20210;-22
2021/12/10 08:17:23;;;;;;;1.97;1.07;;;22.90;40.80;;;;;;4954483;28;20190;-21
2021/12/10 08:19:50;;;;;;;2.90;1.20;;;23.40;40.40;;;;;;4973376;28;20195;-24
2021/12/10 08:22:15;;;;;;;4.03;1.37;;;24.00;40.00;;;;;;4972079;28;20626;-24
2021/12/10 08:24:42;;;;;;;3.93;1.30;;;24.20;39.60;;;;;;4955082;28;20206;-24
2021/12/10 08:27:09;;;;;;;3.40;1.40;;;23.90;39.50;;;;;;4972743;28;20202;-21
2021/12/10 08:29:35;;;;;;;1.77;1.10;;;23.70;39.80;;;;;;4955524;28;20199;-22
2021/12/10 08:32:02;;;;;;;2.17;1.30;;;23.90;39.80;;;;;;4955670;28;20222;-21
2021/12/10 08:34:29;;;;;;;1.83;1.00;;;24.00;39.70;;;;;;4973670;28;20214;-22
2021/12/10 08:36:55;;;;;;;1.37;1.10;;;23.90;39.80;;;;;;4956182;28;20175;-23
2021/12/10 08:39:21;;;;;;;1.63;1.27;;;23.80;39.70;;;;;;4955111;28;20321;-22
2021/12/10 08:41:47;;;;;;;3.10;1.27;;;23.60;39.80;;;;;;4955792;28;20492;-23
2021/12/10 08:44:13;;;;;;;2.13;1.10;;;23.40;40.00;;;;;;4973148;28;20210;-24
2021/12/10 08:46:41;;;;;;;3.20;1.13;;;23.20;40.30;;;;;;4970567;28;20201;-23
2021/12/10 08:49:08;;;;;;;2.57;1.10;;;23.00;40.50;;;;;;4971633;28;20339;-23
2021/12/10 08:51:42;;;;;;;1.37;1.00;;;22.60;40.80;;;;;;4973093;28;20615;-23
2021/12/10 08:54:10;;;;;;;2.27;1.40;;;22.30;41.00;;;;;;4971828;28;20218;-22
2021/12/10 08:56:37;;;;;;;2.27;1.20;;;22.00;41.40;;;;;;4971956;28;20191;-23
2021/12/10 08:59:05;;;;;;;2.90;0.97;;;21.60;41.60;;;;;;4970713;28;20206;-22
2021/12/10 09:01:36;;;;;;;1.13;1.00;;;21.40;41.90;;;;;;4972040;28;20642;-22
2021/12/10 09:04:04;;;;;;;2.60;1.50;;;21.20;42.30;;;;;;4972179;28;20274;-22
2021/12/10 09:06:32;;;;;;;2.30;1.23;;;21.00;42.60;;;;;;4972054;28;20574;-21
2021/12/10 09:08:58;;;;;;;1.87;1.00;;;21.00;42.80;;;;;;4954755;28;20211;-22
2021/12/10 09:11:25;;;;;;;1.90;1.07;;;20.70;42.80;;;;;;4973094;28;20260;-24
2021/12/10 09:13:51;;;;;;;1.77;1.17;;;20.80;42.90;;;;;;4972953;28;20193;-21
2021/12/10 09:16:25;;;;;;;2.10;1.20;;;20.90;42.90;;;;;;4972700;28;20222;-24
2021/12/10 09:18:54;;;;;;;1.97;1.30;;;21.20;42.60;;;;;;4954431;28;20598;-24
2021/12/10 09:21:20;;;;;;;1.40;1.30;;;22.00;42.10;;;;;;4953965;28;20603;-21
2021/12/10 09:23:47;;;;;;;1.60;1.00;;;23.10;41.10;;;;;;4972056;28;20313;-24
2021/12/10 09:26:16;;;;;;;1.67;1.20;;;24.00;40.20;;;;;;4972421;28;20199;-21
2021/12/10 09:28:44;;;;;;;2.80;1.10;;;24.70;39.30;;;;;;4954858;28;20416;-23
2021/12/10 09:31:12;;;;;;;2.00;1.27;;;25.30;38.80;;;;;;4953206;28;20753;-22
2021/12/10 09:33:38;;;;;;;3.27;1.40;;;25.20;38.50;;;;;;4954598;28;20724;-21
2021/12/10 09:36:06;;;;;;;2.27;1.13;;;25.10;38.60;;;;;;4954165;28;20285;-22
2021/12/10 09:38:32;;;;;;;1.77;1.20;;;25.10;38.70;;;;;;4954361;28;20289;-22
2021/12/10 09:41:02;;;;;;;2.30;1.20;;;24.90;38.80;;;;;;4954615;28;20218;-24
2021/12/10 09:43:30;;;;;;;1.80;1.10;;;24.90;38.80;;;;;;4971729;28;20229;-22
2021/12/10 09:45:56;;;;;;;4.13;1.40;;;25.00;38.80;;;;;;4953783;28;20335;-22
2021/12/10 09:48:23;;;;;;;1.40;1.17;;;25.10;38.90;;;;;;4972120;28;20209;-25
2021/12/10 09:50:57;;;;;;;1.53;1.07;;;25.10;38.70;;;;;;4970713;28;20261;-20
2021/12/10 09:53:27;;;;;;;2.97;1.33;;;24.90;38.80;;;;;;4971248;28;20265;-22
2021/12/10 09:55:54;;;;;;;2.83;1.27;;;24.80;39.00;;;;;;4971489;28;20213;-22
2021/12/10 09:58:21;;;;;;;1.63;1.13;;;24.60;39.30;;;;;;4971717;28;20597;-25
2021/12/10 10:00:52;;;;;;;2.10;1.30;;;24.30;39.60;;;;;;4954680;28;20675;-21
2021/12/10 10:03:22;;;;;;;1.93;0.90;;;24.00;39.80;;;;;;4971005;28;20210;-22
2021/12/10 10:05:48;;;;;;;1.60;1.00;;;23.60;40.00;;;;;;4953630;28;20238;-26
2021/12/10 10:08:20;;;;;;;2.90;1.20;;;23.30;40.50;;;;;;4969845;28;20292;-23
2021/12/10 10:10:50;;;;;;;2.00;1.10;;;23.10;40.70;;;;;;4970655;28;20222;-22
2021/12/10 10:13:28;;;;;;;1.20;1.10;;;22.70;41.10;;;;;;4953883;28;20625;-20
2021/12/10 10:15:58;;;;;;;3.03;1.20;;;22.60;41.30;;;;;;4971455;28;20384;-20
2021/12/10 10:18:26;;;;;;;2.47;1.17;;;22.40;41.40;;;;;;4969305;28;20201;-22
2021/12/10 10:20:58;;;;;;;1.27;1.10;;;22.10;41.70;;;;;;4970567;28;20212;-21
2021/12/10 10:23:25;;;;;;;2.77;1.20;;;21.90;42.00;;;;;;4953576;28;20199;-22
2021/12/10 10:25:54;;;;;;;3.57;1.20;;;21.70;42.30;;;;;;4970055;28;20195;-25
2021/12/10 10:28:21;;;;;;;1.60;1.00;;;21.60;42.40;;;;;;4953016;28;20203;-23
2021/12/10 10:30:56;;;;;;;1.83;1.10;;;21.60;42.50;;;;;;4971271;28;20187;-22
2021/12/10 10:33:22;;;;;;;3.70;1.30;;;21.80;42.50;;;;;;4971087;28;20198;-22
2021/12/10 10:35:55;;;;;;;2.83;1.43;;;22.30;41.90;;;;;;4968904;28;20191;-22
2021/12/10 10:38:21;;;;;;;1.60;1.20;;;23.00;41.30;;;;;;4952805;28;20432;-23
2021/12/10 10:40:54;;;;;;;5.20;1.20;;;23.60;40.60;;;;;;4970510;28;20201;-24
2021/12/10 10:43:22;;;;;;;2.60;1.37;;;24.30;40.00;;;;;;4953418;28;20203;-25
2021/12/10 10:45:48;;;;;;;2.57;1.30;;;24.80;39.40;;;;;;4951324;28;20210;-22
2021/12/10 10:48:16;;;;;;;2.83;1.37;;;25.10;38.90;;;;;;4952413;28;20368;-22
2021/12/10 10:51:07;;;;;;;2.67;1.57;;;25.60;38.70;;;;;;4951846;28;20195;-25
2021/12/10 10:53:47;;;;;;;4.07;1.43;;;25.50;38.40;;;;;;4947137;28;20209;-25
2021/12/10 10:56:38;;;;;;;2.67;1.43;;;25.40;38.50;;;;;;4969278;28;20475;-25
2021/12/10 10:59:22;;;;;;;3.70;1.50;;;25.20;38.80;;;;;;4970234;28;20535;-24
2021/12/10 11:01:57;;;;;;;3.40;1.60;;;25.00;38.90;;;;;;4969486;28;20566;-23
2021/12/10 11:04:27;;;;;;;4.53;1.70;;;24.80;39.10;;;;;;4953189;28;20582;-24
2021/12/10 11:06:57;;;;;;;3.73;1.60;;;24.60;39.20;;;;;;4952019;28;20510;-22
2021/12/10 11:09:27;;;;;;;3.30;1.60;;;24.50;39.40;;;;;;4950692;28;20477;-23
2021/12/10 11:12:00;;;;;;;4.00;1.77;;;24.10;39.70;;;;;;4952029;28;20311;-24
2021/12/10 11:14:32;;;;;;;4.43;1.77;;;23.80;40.00;;;;;;4968903;28;20171;-24
2021/12/10 11:17:14;;;;;;;5.07;1.60;;;23.50;40.30;;;;;;4969750;28;20293;-26
2021/12/10 11:19:47;;;;;;;6.83;1.77;;;23.10;40.60;;;;;;4969764;28;20193;-23
2021/12/10 11:22:15;;;;;;;3.50;1.70;;;22.90;40.90;;;;;;4969999;28;20796;-23
2021/12/10 11:24:51;;;;;;;3.80;1.67;;;22.50;41.30;;;;;;4969756;28;20186;-23
2021/12/10 11:27:17;;;;;;;4.00;1.63;;;22.30;41.60;;;;;;4952465;28;20471;-25
2021/12/10 11:29:43;;;;;;;3.07;1.70;;;22.00;41.80;;;;;;4952284;28;20560;-24
2021/12/10 11:32:13;;;;;;;4.43;1.87;;;21.70;42.10;;;;;;4969196;28;20365;-23
2021/12/10 11:35:02;;;;;;;3.07;1.63;;;21.50;42.30;;;;;;4951621;28;20261;-24
2021/12/10 11:37:57;;;;;;;3.20;1.83;;;21.20;42.60;;;;;;4951161;28;20292;-25
2021/12/10 11:40:27;;;;;;;3.77;1.50;;;20.90;42.80;;;;;;4968445;28;20187;-27
2021/12/10 11:43:00;;;;;;;6.03;1.80;;;20.70;43.00;;;;;;4949896;28;20471;-23
2021/12/10 11:45:41;;;;;;;4.63;1.63;;;20.60;43.20;;;;;;4950919;28;20225;-26
2021/12/10 11:48:12;;;;;;;2.43;1.40;;;20.30;43.40;;;;;;4953080;28;20218;-24
2021/12/10 11:50:57;;;;;;;3.60;1.40;;;20.20;43.70;;;;;;4954391;28;20525;-22
2021/12/10 11:53:22;;;;;;;3.20;1.60;;;20.60;43.70;;;;;;4971354;28;20233;-24
2021/12/10 11:56:14;;;;;;;5.03;1.60;;;21.80;42.80;;;;;;4971099;28;20584;-26
2021/12/10 11:58:40;;;;;;;3.30;1.50;;;23.30;41.20;;;;;;4941620;28;20279;-24
2021/12/10 12:01:18;;;;;;;4.13;1.80;;;24.10;40.20;;;;;;4984949;28;20201;-24
2021/12/10 12:03:45;;;;;;;6.40;1.43;;;24.40;39.60;;;;;;4976519;28;20276;-26
2021/12/10 12:06:17;;;;;;;4.70;1.63;;;24.70;39.30;;;;;;4991764;28;20450;-24
2021/12/10 12:08:43;;;;;;;2.37;1.67;;;24.70;39.20;;;;;;4992484;28;20466;-24
2021/12/10 12:11:09;;;;;;;5.87;1.80;;;24.40;39.40;;;;;;4991890;28;20362;-24
2021/12/10 12:13:39;;;;;;;3.50;1.50;;;24.30;39.50;;;;;;4991583;28;20222;-24
2021/12/10 12:16:07;;;;;;;4.00;1.90;;;24.10;39.50;;;;;;4989767;28;20338;-25
2021/12/10 12:18:43;;;;;;;4.60;2.07;;;24.10;39.70;;;;;;4973464;28;20221;-25
2021/12/10 12:27:09;;;;;;;4.77;1.80;;;23.70;40.10;;;;;;4991027;28;20240;-24
2021/12/10 12:29:47;;;;;;;3.83;1.50;;;23.50;40.20;;;;;;4990567;28;20478;-22
2021/12/10 12:32:17;;;;;;;3.13;1.60;;;23.40;40.50;;;;;;4979612;28;20227;-22
2021/12/10 12:34:42;;;;;;;4.37;1.80;;;23.20;40.70;;;;;;4997667;28;20258;-23
2021/12/10 12:37:11;;;;;;;4.17;1.63;;;22.90;40.90;;;;;;4992748;28;20349;-22
2021/12/10 12:39:44;;;;;;;2.50;1.40;;;22.60;41.30;;;;;;4990153;28;20194;-21
2021/12/10 12:42:25;;;;;;;3.70;1.67;;;22.40;41.50;;;;;;4972540;28;20570;-21
2021/12/10 12:44:57;;;;;;;6.07;1.53;;;22.10;41.80;;;;;;4989591;28;20458;-22
2021/12/10 12:47:28;;;;;;;3.47;1.40;;;21.80;42.10;;;;;;4972947;28;20194;-23
2021/12/10 12:50:06;;;;;;;3.60;1.70;;;21.60;42.30;;;;;;4990267;28;20189;-22
2021/12/10 12:52:43;;;;;;;3.10;1.43;;;21.30;42.60;;;;;;4986180;28;20554;-22
2021/12/10 12:55:43;;;;;;;2.97;1.40;;;21.20;42.80;;;;;;4989625;28;20291;-21
2021/12/10 12:58:22;;;;;;;4.23;1.67;;;21.00;43.00;;;;;;4989812;28;20474;-22
2021/12/10 13:00:54;;;;;;;2.73;1.30;;;20.80;43.30;;;;;;4991029;28;20197;-25
2021/12/10 13:03:29;;;;;;;3.63;1.20;;;20.70;43.50;;;;;;4974926;28;20208;-23
2021/12/10 13:06:11;;;;;;;2.73;1.30;;;20.50;43.60;;;;;;4973145;28;20507;-24
2021/12/10 13:08:40;;;;;;;4.73;1.50;;;20.30;43.80;;;;;;4990631;28;20197;-25
2021/12/10 13:11:25;;;;;;;4.27;1.37;;;20.20;44.20;;;;;;4989562;28;20274;-23
2021/12/10 13:13:59;;;;;;;4.97;1.80;;;20.10;44.40;;;;;;4989082;28;20590;-24
2021/12/10 13:16:37;;;;;;;4.80;1.57;;;19.90;44.70;;;;;;4989985;28;20300;-27